ADD weather

Addis Ababa Bole International Airport
Addis Ababa, Addis Ababa, Ethiopia

Public forecast

Using degrees Celsius for public forecast. Weather courtesy of forecast.io.

Current aviation weather report (METAR) for Addis Ababa Bole International Airport

Retrieved 2020/02/23 11:00 UTC (51 minutes ago):

HAAB 231100Z 10015KT 9999 SCT025 26/03 Q1025

Aviation forecast (TAF) for Addis Ababa Bole International Airport

Retrieved 2020/02/23 06:18 UTC (6 hours ago):

TAF TAF HAAB 230330Z 2306/2412 09011KT 9999 FEW020 FEW080